Time;durP1;ratioP1;P1;durP2;ratioP2;P2;SDS_P1;SDS_P2;PMS_P1;PMS_P2;Temp;Humidity;BMP_temperature;BMP_pressure;BME280_temperature;BME280_humidity;BME280_pressure;Samples;Min_cycle;Max_cycle;Signal;HPM_P1;HPM_P2
2021/06/14 00:01:21;;;;;;;0.70;0.60;;;;;;;15.73;77.43;98991.83;1721860;81;21062;-54
2021/06/14 00:03:47;;;;;;;0.70;0.60;;;;;;;15.75;77.52;98990.70;1715305;81;21078;-55
2021/06/14 00:06:14;;;;;;;0.80;0.80;;;;;;;15.78;77.58;98989.10;1718762;81;21077;-55
2021/06/14 00:08:43;;;;;;;3.22;0.60;;;;;;;15.81;77.57;98996.14;1642179;84;21009;-54
2021/06/14 00:11:10;;;;;;;0.70;0.53;;;;;;;15.81;77.59;98998.36;1717513;81;21479;-54
2021/06/14 00:13:37;;;;;;;2.35;0.80;;;;;;;15.84;77.51;99004.88;1720223;81;21516;-58
2021/06/14 00:16:07;;;;;;;2.62;0.82;;;;;;;15.85;77.42;99005.25;1719723;81;22163;-52
2021/06/14 00:18:34;;;;;;;3.83;1.12;;;;;;;15.86;77.53;99002.91;1724526;81;20923;-53
2021/06/14 00:21:05;;;;;;;1.62;0.70;;;;;;;15.87;77.57;99000.56;1725185;81;20895;-53
2021/06/14 00:23:31;;;;;;;0.95;0.60;;;;;;;15.86;77.31;99008.33;1720169;81;20986;-54
2021/06/14 00:25:59;;;;;;;2.22;0.65;;;;;;;15.83;77.41;98999.08;1718618;81;21123;-57
2021/06/14 00:28:25;;;;;;;0.78;0.60;;;;;;;15.83;77.44;98999.56;1727788;81;20951;-57
2021/06/14 00:30:52;;;;;;;0.57;0.50;;;;;;;15.83;77.44;98995.49;1718608;81;21093;-56
2021/06/14 00:33:20;;;;;;;2.83;0.68;;;;;;;15.82;77.37;98996.52;1641947;84;21551;-53
2021/06/14 00:35:47;;;;;;;1.42;0.60;;;;;;;15.79;77.35;99001.69;1731454;80;21096;-56
2021/06/14 00:38:15;;;;;;;1.20;0.60;;;;;;;15.79;77.10;98998.11;1728025;80;23011;-54
2021/06/14 00:40:42;;;;;;;1.15;0.50;;;;;;;15.77;77.04;98994.65;1665617;84;20994;-56
2021/06/14 00:43:09;;;;;;;2.20;0.55;;;;;;;15.75;77.25;98991.19;1728069;80;20978;-54
2021/06/14 00:45:41;;;;;;;1.00;0.50;;;;;;;15.76;77.11;98995.63;1728332;80;21015;-57
2021/06/14 00:48:08;;;;;;;1.15;0.50;;;;;;;15.75;77.08;98990.70;1729964;80;21547;-58
2021/06/14 00:50:45;;;;;;;0.70;0.50;;;;;;;15.75;76.97;98991.19;1726389;80;21171;-55
2021/06/14 00:53:16;;;;;;;0.50;0.50;;;;;;;15.76;77.05;98992.42;1727634;80;22167;-54
2021/06/14 00:55:44;;;;;;;1.57;0.40;;;;;;;15.77;77.04;98997.36;1728685;80;21046;-54
2021/06/14 00:58:11;;;;;;;0.53;0.50;;;;;;;15.78;77.06;98989.10;1660181;84;21423;-56
2021/06/14 01:00:39;;;;;;;0.72;0.55;;;;;;;15.80;76.93;98991.70;1733452;80;20972;-54
2021/06/14 01:03:05;;;;;;;1.05;0.55;;;;;;;15.78;77.01;98995.88;1668259;83;21909;-53
2021/06/14 01:05:38;;;;;;;2.50;0.57;;;;;;;15.77;76.88;98992.80;1733449;80;21481;-55
2021/06/14 01:08:07;;;;;;;2.47;0.50;;;;;;;15.77;76.82;98988.73;1733653;80;20970;-54
2021/06/14 01:10:38;;;;;;;1.22;0.50;;;;;;;15.76;76.79;98994.27;1726489;80;21089;-55
2021/06/14 01:13:43;;;;;;;1.25;0.47;;;;;;;15.74;76.73;98993.03;1723750;81;21057;-54
2021/06/14 01:16:35;;;;;;;2.02;0.50;;;;;;;15.72;76.66;98993.68;1661598;83;21548;-54
2021/06/14 01:19:27;;;;;;;0.70;0.50;;;;;;;15.70;76.86;98990.22;1692888;82;21043;-53
2021/06/14 01:22:21;;;;;;;0.80;0.50;;;;;;;15.72;76.89;98989.61;1730911;80;21039;-53
2021/06/14 01:24:56;;;;;;;0.60;0.50;;;;;;;15.74;76.78;98986.25;1655565;80;21363;-55
2021/06/14 01:27:44;;;;;;;0.68;0.60;;;;;;;15.76;76.28;98989.71;1727116;80;21015;-55
2021/06/14 01:30:18;;;;;;;2.17;0.57;;;;;;;15.76;76.24;98988.84;1663212;83;21761;-59
2021/06/14 01:32:45;;;;;;;2.17;0.50;;;;;;;15.75;76.29;98991.19;1664380;83;20887;-57
2021/06/14 01:35:14;;;;;;;0.70;0.40;;;;;;;15.74;76.25;98994.88;1669117;83;21101;-57
2021/06/14 01:37:47;;;;;;;0.53;0.40;;;;;;;15.71;76.05;98993.80;1675163;84;21169;-56
2021/06/14 01:40:16;;;;;;;1.77;0.35;;;;;;;15.70;75.94;98997.49;1648079;83;21061;-59
2021/06/14 01:42:44;;;;;;;0.30;0.30;;;;;;;15.70;75.66;98999.72;1675661;83;21120;-57
2021/06/14 01:45:13;;;;;;;1.10;0.50;;;;;;;15.71;75.71;99000.58;1654407;83;21089;-58
2021/06/14 01:47:40;;;;;;;2.20;0.50;;;;;;;15.72;75.67;99001.82;1667446;83;21070;-56
2021/06/14 01:50:08;;;;;;;1.15;0.50;;;;;;;15.74;75.69;99008.45;1659340;83;21699;-57
2021/06/14 01:52:35;;;;;;;1.30;0.40;;;;;;;15.73;75.67;99003.55;1674628;83;21691;-54
2021/06/14 01:55:02;;;;;;;0.72;0.40;;;;;;;15.73;75.98;99008.11;1665721;83;21524;-52
2021/06/14 01:57:30;;;;;;;1.17;0.50;;;;;;;15.73;75.73;99013.54;1672565;83;21349;-57
2021/06/14 02:00:07;;;;;;;;;;;;;;;15.70;75.52;99009.21;1671615;83;21118;-54
2021/06/14 02:02:44;;;;;;;0.95;0.42;;;;;;;15.68;75.12;99010.31;1672175;83;20206;-53
2021/06/14 02:05:12;;;;;;;0.80;0.50;;;;;;;15.68;75.11;99017.96;1669207;83;21110;-53
2021/06/14 02:07:41;;;;;;;0.60;0.50;;;;;;;15.66;74.86;99019.06;1670693;83;21126;-55
2021/06/14 02:10:09;;;;;;;3.72;0.55;;;;;;;15.63;75.08;99022.05;1669092;83;21069;-55
2021/06/14 02:12:42;;;;;;;2.70;0.60;;;;;;;15.63;74.86;99017.97;1671477;83;21034;-53
2021/06/14 02:15:10;;;;;;;2.33;0.82;;;;;;;15.63;74.51;99020.20;1628870;83;21413;-55
2021/06/14 02:17:39;;;;;;;1.40;1.05;;;;;;;15.59;74.29;99025.97;1670315;83;22053;-55
2021/06/14 02:20:08;;;;;;;3.27;1.22;;;;;;;15.55;74.09;99030.80;1649590;83;21778;-53
2021/06/14 02:22:36;;;;;;;5.22;1.72;;;;;;;15.51;74.04;99027.91;1671603;83;20974;-55
2021/06/14 02:25:10;;;;;;;1.20;0.80;;;;;;;15.47;74.18;99025.09;1668239;83;21710;-54
2021/06/14 02:27:37;;;;;;;1.70;0.40;;;;;;;15.43;74.43;99030.38;1671534;83;22293;-56
2021/06/14 02:30:13;;;;;;;1.62;0.60;;;;;;;15.38;74.78;99030.75;1667916;83;21046;-57
2021/06/14 02:32:40;;;;;;;0.80;0.50;;;;;;;15.36;75.15;99033.20;1672313;83;21134;-57
2021/06/14 02:35:08;;;;;;;3.22;0.40;;;;;;;15.34;75.56;99033.31;1667822;83;21493;-54
2021/06/14 02:37:37;;;;;;;2.77;0.40;;;;;;;15.35;75.80;99039.12;1641989;83;21390;-55
2021/06/14 02:40:07;;;;;;;0.62;0.40;;;;;;;15.36;75.91;99042.70;1673958;83;21515;-55
2021/06/14 02:42:35;;;;;;;0.78;0.30;;;;;;;15.39;76.11;99045.17;1708256;82;21060;-56
2021/06/14 02:45:03;;;;;;;0.55;0.30;;;;;;;15.43;76.28;99040.73;1674206;82;21112;-57
2021/06/14 02:49:32;;;;;;;1.50;0.47;;;;;;;15.51;76.21;99030.13;1791263;78;23640;-54
2021/06/14 02:51:59;;;;;;;0.90;0.50;;;;;;;15.50;76.15;99042.45;1806493;78;21461;-55
2021/06/14 02:54:32;;;;;;;1.30;0.53;;;;;;;15.51;76.21;99044.19;1764462;78;21547;-53
2021/06/14 02:57:00;;;;;;;2.77;0.40;;;;;;;15.51;76.24;99047.77;1792192;78;20962;-52
2021/06/14 02:59:27;;;;;;;0.80;0.40;;;;;;;15.52;76.36;99037.29;1793652;78;20965;-56
2021/06/14 03:01:55;;;;;;;9.38;0.47;;;;;;;15.52;76.46;99031.00;1800600;78;21001;-53
2021/06/14 03:04:21;;;;;;;1.65;0.40;;;;;;;15.51;76.47;99034.20;1796801;78;20962;-53
2021/06/14 03:06:51;;;;;;;0.95;0.45;;;;;;;15.49;76.47;99042.08;1793535;78;21147;-55
2021/06/14 03:09:18;;;;;;;1.25;0.37;;;;;;;15.51;76.59;99045.55;1798688;78;21517;-54
2021/06/14 03:11:45;;;;;;;0.60;0.50;;;;;;;15.52;76.34;99053.56;1802232;78;21453;-53
2021/06/14 03:14:14;;;;;;;1.12;0.40;;;;;;;15.50;75.81;99054.17;1803341;78;20949;-53
2021/06/14 03:16:44;;;;;;;0.50;0.50;;;;;;;15.49;75.58;99051.08;1800017;77;21948;-53
2021/06/14 03:19:10;;;;;;;1.22;0.60;;;;;;;15.46;75.46;99043.70;1794044;78;22494;-52
2021/06/14 03:21:37;;;;;;;2.87;0.50;;;;;;;15.46;75.49;99048.63;1799805;78;20879;-54
2021/06/14 03:24:05;;;;;;;0.45;0.35;;;;;;;15.46;75.86;99050.48;1794858;78;21903;-53
2021/06/14 03:26:36;;;;;;;0.47;0.30;;;;;;;15.47;75.70;99053.56;1774199;78;20967;-55
2021/06/14 03:29:03;;;;;;;0.55;0.50;;;;;;;15.50;75.41;99051.45;1770290;78;21480;-53
2021/06/14 03:31:29;;;;;;;4.20;0.45;;;;;;;15.52;75.00;99054.05;1800080;78;21112;-52
2021/06/14 03:33:55;;;;;;;1.25;0.65;;;;;;;15.51;74.86;99042.83;1800280;78;20907;-52
2021/06/14 03:36:23;;;;;;;0.80;0.40;;;;;;;15.49;74.65;99051.58;1795084;78;20926;-52
2021/06/14 03:38:51;;;;;;;0.98;0.40;;;;;;;15.46;74.75;99052.70;1796964;78;20996;-52
2021/06/14 03:41:18;;;;;;;1.77;0.50;;;;;;;15.46;74.73;99057.27;1795232;78;20915;-51
2021/06/14 03:43:45;;;;;;;1.77;0.50;;;;;;;15.47;74.78;99058.50;1773251;78;21075;-51
2021/06/14 03:46:11;;;;;;;1.67;0.40;;;;;;;15.51;74.78;99061.81;1708617;81;20898;-55
2021/06/14 03:48:38;;;;;;;0.50;0.50;;;;;;;15.54;74.91;99063.46;1710610;81;21414;-54
2021/06/14 03:51:05;;;;;;;2.35;1.00;;;;;;;15.54;74.83;99064.33;1736990;80;21089;-54
2021/06/14 03:53:33;;;;;;;2.22;1.32;;;;;;;15.53;74.60;99073.41;1737237;80;20990;-52
2021/06/14 03:56:09;;;;;;;2.62;1.70;;;;;;;15.50;74.56;99073.64;1733939;80;21168;-53
2021/06/14 03:58:37;;;;;;;1.40;1.10;;;;;;;15.50;75.03;99074.51;1704663;82;21085;-54
2021/06/14 04:01:04;;;;;;;4.53;1.20;;;;;;;15.49;75.08;99066.48;1711502;81;21728;-50
2021/06/14 04:03:30;;;;;;;1.32;0.90;;;;;;;15.50;75.00;99071.80;1703513;82;21031;-51
2021/06/14 04:06:00;;;;;;;2.90;0.80;;;;;;;15.51;74.81;99069.46;1707981;82;21020;-54
2021/06/14 04:08:29;;;;;;;1.00;0.75;;;;;;;15.49;74.66;99064.64;1714760;82;20955;-53
2021/06/14 04:10:56;;;;;;;0.80;0.50;;;;;;;15.49;75.06;99070.06;1734853;81;21487;-52
2021/06/14 04:13:22;;;;;;;1.00;0.60;;;;;;;15.53;74.99;99072.06;1703858;82;21652;-54
2021/06/14 04:15:48;;;;;;;1.32;0.70;;;;;;;15.60;75.19;99071.11;1716303;82;21140;-52
2021/06/14 04:18:16;;;;;;;3.02;1.45;;;;;;;15.65;75.35;99079.23;1734748;80;21144;-52
2021/06/14 04:20:43;;;;;;;5.80;3.02;;;;;;;15.71;74.94;99077.91;1676396;82;21225;-51
2021/06/14 04:23:09;;;;;;;4.17;3.72;;;;;;;15.83;75.01;99075.55;1717359;81;21069;-51
2021/06/14 04:25:35;;;;;;;1.25;0.72;;;;;;;15.96;74.98;99066.80;1708497;81;21033;-52
2021/06/14 04:28:03;;;;;;;0.88;0.60;;;;;;;16.10;74.50;99076.53;1707455;82;21726;-51
2021/06/14 04:30:29;;;;;;;0.70;0.60;;;;;;;16.20;74.44;99081.09;1707888;81;21124;-50
2021/06/14 04:32:56;;;;;;;2.45;0.40;;;;;;;16.30;74.19;99086.64;1710245;81;21513;-53
2021/06/14 04:35:22;;;;;;;0.70;0.50;;;;;;;16.41;73.23;99092.55;1713928;81;21050;-54
2021/06/14 04:37:49;;;;;;;0.47;0.40;;;;;;;16.50;72.66;99092.63;1709005;81;21046;-54
2021/06/14 04:40:15;;;;;;;0.50;0.50;;;;;;;16.61;72.40;99097.20;1710411;81;21960;-52
2021/06/14 04:42:42;;;;;;;1.30;0.50;;;;;;;16.70;72.44;99105.95;1710052;81;22484;-52
2021/06/14 04:45:09;;;;;;;2.42;0.50;;;;;;;16.77;72.24;99104.44;1710477;81;21147;-50
2021/06/14 04:47:35;;;;;;;1.17;0.57;;;;;;;16.80;71.63;99099.25;1717065;81;20982;-52
2021/06/14 04:50:03;;;;;;;0.65;0.50;;;;;;;16.84;71.55;99105.65;1704639;82;21024;-51
2021/06/14 04:52:29;;;;;;;2.58;0.82;;;;;;;16.94;71.67;99107.97;1701976;81;21121;-54
2021/06/14 04:54:56;;;;;;;1.98;0.50;;;;;;;17.07;71.88;99106.45;1702980;82;21074;-52
2021/06/14 04:57:23;;;;;;;0.57;0.50;;;;;;;17.21;71.71;99110.20;1700206;81;21112;-52
2021/06/14 04:59:49;;;;;;;1.87;1.17;;;;;;;17.35;71.43;99114.47;1707077;81;20962;-52
2021/06/14 05:02:15;;;;;;;1.57;0.70;;;;;;;17.48;70.51;99112.91;1705444;81;21142;-53
2021/06/14 05:04:42;;;;;;;1.00;0.60;;;;;;;17.56;70.96;99110.38;1698704;81;21061;-53
2021/06/14 05:07:08;;;;;;;0.60;0.60;;;;;;;17.62;69.68;99113.95;1701502;81;21542;-51
2021/06/14 05:09:35;;;;;;;0.70;0.50;;;;;;;17.64;68.99;99114.69;1701306;82;22223;-52
2021/06/14 05:12:02;;;;;;;1.57;0.70;;;;;;;17.67;69.36;99111.70;1692687;82;21614;-55
2021/06/14 05:14:28;;;;;;;1.72;0.60;;;;;;;17.70;69.21;99120.95;1697259;81;21537;-53
2021/06/14 05:16:54;;;;;;;1.45;0.70;;;;;;;17.68;68.77;99116.16;1703586;81;21452;-55
2021/06/14 05:19:21;;;;;;;0.60;0.55;;;;;;;17.62;68.68;99116.17;1703990;82;21093;-53
2021/06/14 05:21:47;;;;;;;0.90;0.50;;;;;;;17.59;69.31;99121.88;1701648;81;21141;-55
2021/06/14 05:24:13;;;;;;;0.60;0.50;;;;;;;17.63;69.83;99125.20;1699546;81;21113;-55
2021/06/14 05:26:40;;;;;;;0.53;0.50;;;;;;;17.66;70.10;99123.09;1698607;81;21113;-52
2021/06/14 05:29:06;;;;;;;2.25;0.70;;;;;;;17.72;70.28;99136.16;1701166;82;21085;-54
2021/06/14 05:31:33;;;;;;;1.00;0.70;;;;;;;17.78;69.78;99138.00;1702002;81;21254;-53
2021/06/14 05:33:59;;;;;;;2.95;0.80;;;;;;;17.78;69.44;99130.66;1703953;81;21095;-56
2021/06/14 05:36:25;;;;;;;3.55;0.80;;;;;;;17.73;69.37;99137.02;1700503;81;21027;-54
2021/06/14 05:38:52;;;;;;;1.45;0.70;;;;;;;17.71;69.82;99133.56;1702220;81;22376;-55
2021/06/14 05:41:20;;;;;;;0.70;0.70;;;;;;;17.74;69.83;99145.55;1757639;79;21742;-53
2021/06/14 05:43:47;;;;;;;0.80;0.60;;;;;;;17.75;69.49;99135.90;1761339;79;21061;-54
2021/06/14 05:46:13;;;;;;;0.78;0.62;;;;;;;17.78;70.18;99138.33;1754029;79;21135;-51
2021/06/14 05:48:39;;;;;;;1.25;1.00;;;;;;;17.83;70.24;99137.08;1754659;79;21053;-54
2021/06/14 05:51:06;;;;;;;1.47;0.72;;;;;;;17.92;70.67;99141.22;1763004;79;21093;-53
2021/06/14 05:53:32;;;;;;;1.82;0.70;;;;;;;18.02;70.59;99135.83;1700138;82;21415;-52
2021/06/14 05:55:59;;;;;;;2.12;0.70;;;;;;;18.07;70.51;99141.22;1762871;79;20989;-52
2021/06/14 05:58:26;;;;;;;0.82;0.70;;;;;;;18.13;70.46;99145.25;1763212;79;21531;-52
2021/06/14 06:00:52;;;;;;;2.25;0.80;;;;;;;18.18;69.93;99145.73;1698781;82;21147;-53
2021/06/14 06:03:18;;;;;;;1.37;0.62;;;;;;;18.23;69.85;99150.75;1707786;82;21082;-52
2021/06/14 06:05:45;;;;;;;0.78;0.70;;;;;;;18.27;69.58;99149.00;1702234;82;21574;-51
2021/06/14 06:08:11;;;;;;;0.88;0.80;;;;;;;18.29;69.59;99160.59;1700629;82;21315;-52
2021/06/14 06:10:38;;;;;;;2.15;0.80;;;;;;;18.33;69.78;99162.56;1673468;82;21710;-52
2021/06/14 06:13:04;;;;;;;1.67;0.80;;;;;;;18.35;69.87;99172.83;1697721;82;21469;-51
2021/06/14 06:15:31;;;;;;;1.62;0.80;;;;;;;18.37;69.77;99162.66;1763008;79;21093;-52
2021/06/14 06:17:57;;;;;;;0.65;0.65;;;;;;;18.41;69.83;99161.37;1773950;79;21382;-54
2021/06/14 06:20:24;;;;;;;4.20;0.75;;;;;;;18.44;69.99;99161.11;1765807;79;21093;-52
2021/06/14 06:22:51;;;;;;;2.25;1.15;;;;;;;18.48;69.78;99163.91;1701043;82;21808;-51
2021/06/14 06:25:19;;;;;;;0.70;0.70;;;;;;;18.49;69.75;99171.95;1767719;79;20955;-52
2021/06/14 06:27:47;;;;;;;7.62;4.83;;;;;;;18.53;69.81;99171.19;1767017;79;21183;-52
2021/06/14 06:30:15;;;;;;;6.65;4.05;;;;;;;18.58;70.10;99173.02;1699607;82;21090;-55
2021/06/14 06:32:42;;;;;;;4.60;3.52;;;;;;;18.69;70.23;99177.50;1768658;79;20958;-55
2021/06/14 06:35:10;;;;;;;5.05;4.15;;;;;;;18.78;69.77;99176.17;1766621;79;21076;-53
2021/06/14 06:37:37;;;;;;;7.60;6.75;;;;;;;18.89;69.72;99174.66;1768356;79;21436;-51
2021/06/14 06:40:06;;;;;;;14.98;10.58;;;;;;;19.03;69.42;99176.15;1770754;79;22384;-52
2021/06/14 06:42:34;;;;;;;118.95;83.17;;;;;;;19.17;69.28;99175.72;1772883;79;20989;-54
2021/06/14 06:45:00;;;;;;;43.58;28.67;;;;;;;19.33;69.03;99177.02;1769075;79;20930;-51
2021/06/14 06:47:27;;;;;;;31.50;17.70;;;;;;;19.46;69.12;99178.98;1763948;79;22369;-55
2021/06/14 06:49:54;;;;;;;2.10;1.90;;;;;;;19.61;68.85;99183.02;1762449;79;21532;-53
2021/06/14 06:52:21;;;;;;;1.35;1.15;;;;;;;19.72;67.65;99183.38;1761971;79;21431;-50
2021/06/14 06:54:47;;;;;;;1.35;1.25;;;;;;;19.79;67.25;99184.52;1765454;79;21037;-55
2021/06/14 06:57:16;;;;;;;1.98;0.90;;;;;;;19.84;66.50;99183.06;1764497;79;21061;-52
2021/06/14 06:59:43;;;;;;;3.75;1.27;;;;;;;19.78;65.91;99190.98;1698993;82;21686;-51
2021/06/14 07:02:09;;;;;;;1.55;1.00;;;;;;;19.70;66.38;99197.67;1708737;81;21584;-54
2021/06/14 07:04:37;;;;;;;2.70;1.02;;;;;;;19.62;66.56;99197.90;1729713;80;21097;-54
2021/06/14 07:07:04;;;;;;;1.47;0.80;;;;;;;19.54;66.59;99202.36;1763198;79;21739;-53
2021/06/14 07:09:31;;;;;;;2.20;1.00;;;;;;;19.51;66.93;99212.19;1758894;79;21536;-53
2021/06/14 07:11:57;;;;;;;4.08;0.90;;;;;;;19.55;66.99;99204.08;1759491;79;21699;-55
2021/06/14 07:14:24;;;;;;;3.00;0.90;;;;;;;19.64;67.21;99204.08;1761056;79;21564;-54
2021/06/14 07:16:51;;;;;;;1.67;0.80;;;;;;;19.72;67.67;99204.72;1763739;79;21097;-55
2021/06/14 07:19:17;;;;;;;1.30;1.10;;;;;;;19.79;67.23;99210.45;1766272;79;21065;-54
2021/06/14 07:21:44;;;;;;;1.55;0.80;;;;;;;19.86;66.58;99211.09;1764139;79;21541;-55
2021/06/14 07:24:10;;;;;;;1.55;1.10;;;;;;;19.87;66.19;99216.05;1764066;79;21508;-53
2021/06/14 07:26:38;;;;;;;1.02;0.90;;;;;;;19.88;66.51;99216.41;1765004;79;21070;-56
2021/06/14 07:29:04;;;;;;;1.42;0.70;;;;;;;19.87;66.59;99221.02;1697183;82;21101;-56
2021/06/14 07:31:30;;;;;;;0.75;0.70;;;;;;;19.95;66.29;99220.28;1764840;79;21101;-52
2021/06/14 07:34:02;;;;;;;1.00;0.85;;;;;;;20.00;66.43;99223.42;1762620;79;21511;-54
2021/06/14 07:36:28;;;;;;;1.57;1.10;;;;;;;20.07;65.85;99220.99;1695995;82;21177;-55
2021/06/14 07:38:55;;;;;;;3.70;0.90;;;;;;;20.09;65.86;99225.28;1762039;79;21050;-55
2021/06/14 07:41:21;;;;;;;2.02;0.68;;;;;;;20.13;65.81;99229.45;1765290;79;21064;-52
2021/06/14 07:43:47;;;;;;;2.05;0.90;;;;;;;20.22;66.25;99233.17;1767480;79;21128;-56
2021/06/14 07:46:14;;;;;;;0.82;0.72;;;;;;;20.32;66.33;99239.48;1700480;82;21039;-55
2021/06/14 07:48:40;;;;;;;1.30;0.68;;;;;;;20.43;66.30;99241.19;1690300;82;21753;-53
2021/06/14 07:51:07;;;;;;;4.30;0.75;;;;;;;20.51;65.53;99238.07;1702279;81;21464;-55
2021/06/14 07:53:34;;;;;;;1.02;0.70;;;;;;;20.60;65.00;99241.28;1702815;81;21078;-54
2021/06/14 07:56:00;;;;;;;2.10;0.90;;;;;;;20.68;65.44;99240.52;1703355;82;21456;-56
2021/06/14 07:58:27;;;;;;;1.17;0.70;;;;;;;20.74;64.81;99233.11;1703083;82;21300;-53
2021/06/14 08:00:53;;;;;;;1.20;0.75;;;;;;;20.80;64.86;99228.90;1704548;82;21561;-52
2021/06/14 08:03:24;;;;;;;1.07;0.85;;;;;;;20.92;65.08;99238.14;1707534;82;21193;-53
2021/06/14 08:05:51;;;;;;;0.85;0.80;;;;;;;20.98;64.49;99234.78;1701386;82;21572;-53
2021/06/14 08:08:17;;;;;;;1.02;0.90;;;;;;;20.94;64.26;99241.56;1698593;82;21531;-55
2021/06/14 08:10:45;;;;;;;1.07;0.68;;;;;;;20.95;64.02;99239.69;1702995;81;21681;-51
2021/06/14 08:13:12;;;;;;;0.90;0.80;;;;;;;21.00;64.74;99239.60;1703391;81;22791;-53
2021/06/14 08:15:39;;;;;;;1.10;0.70;;;;;;;21.13;64.55;99245.56;1698887;81;21768;-54
2021/06/14 08:26:11;;;;;;;1.85;0.70;;;;;;;21.68;62.16;99252.36;1707545;81;21351;-52
2021/06/14 08:28:38;;;;;;;4.25;0.85;;;;;;;21.70;62.07;99253.05;1701948;81;21512;-52
2021/06/14 08:31:04;;;;;;;3.60;0.80;;;;;;;21.76;62.33;99255.17;1704080;81;21117;-54
2021/06/14 08:33:31;;;;;;;1.67;0.65;;;;;;;21.85;61.88;99261.09;1700392;82;21181;-57
2021/06/14 08:35:58;;;;;;;2.67;0.80;;;;;;;21.94;61.88;99266.64;1706688;82;21113;-54
2021/06/14 08:38:25;;;;;;;1.02;0.70;;;;;;;21.98;61.79;99274.41;1703724;81;21111;-51
2021/06/14 08:40:51;;;;;;;1.52;0.80;;;;;;;21.97;60.48;99271.78;1697256;82;21054;-53
2021/06/14 08:43:20;;;;;;;3.12;0.65;;;;;;;21.97;60.92;99277.27;1698687;82;21098;-54
2021/06/14 08:45:48;;;;;;;1.57;0.60;;;;;;;21.97;61.40;99285.48;1701723;82;21487;-54
2021/06/14 08:48:15;;;;;;;0.90;0.65;;;;;;;22.05;61.60;99286.45;1699595;81;21093;-54
2021/06/14 08:50:41;;;;;;;0.95;0.50;;;;;;;22.22;61.10;99287.45;1697764;81;21559;-57
2021/06/14 08:53:08;;;;;;;0.60;0.60;;;;;;;22.26;61.27;99285.62;1705359;81;20970;-53
2021/06/14 08:55:34;;;;;;;2.25;0.60;;;;;;;22.39;60.92;99298.89;1704133;82;21439;-52
2021/06/14 08:58:01;;;;;;;0.90;0.70;;;;;;;22.47;60.81;99295.34;1706340;81;21670;-52
2021/06/14 09:00:28;;;;;;;1.02;0.70;;;;;;;22.55;60.33;99296.27;1701838;81;21040;-53
2021/06/14 09:02:55;;;;;;;2.40;0.70;;;;;;;22.54;60.25;99301.40;1706379;81;21046;-54
2021/06/14 09:05:22;;;;;;;2.67;0.95;;;;;;;22.51;60.51;99300.37;1702314;81;21117;-54
2021/06/14 09:07:49;;;;;;;3.60;0.70;;;;;;;22.47;60.50;99305.81;1703333;81;20943;-53
2021/06/14 09:10:38;;;;;;;0.60;0.60;;;;;;;22.47;60.46;99304.44;1704668;82;21764;-52
2021/06/14 09:13:14;;;;;;;0.95;0.60;;;;;;;22.50;60.84;99301.89;1702594;81;20915;-51
2021/06/14 09:15:45;;;;;;;0.60;0.50;;;;;;;22.54;59.97;99308.80;1704646;81;21100;-54
2021/06/14 09:18:21;;;;;;;1.72;0.53;;;;;;;22.60;59.75;99313.13;1702462;81;21381;-57
2021/06/14 09:21:12;;;;;;;1.42;0.50;;;;;;;22.66;59.83;99310.23;1734790;80;21816;-55
2021/06/14 09:23:55;;;;;;;0.53;0.53;;;;;;;22.74;58.72;99308.05;1759613;79;20915;-52
2021/06/14 09:26:39;;;;;;;0.60;0.50;;;;;;;22.81;58.65;99310.52;1692369;82;20947;-53
2021/06/14 09:29:12;;;;;;;2.80;0.50;;;;;;;22.86;58.44;99313.66;1724588;80;21158;-55
2021/06/14 09:31:44;;;;;;;0.50;0.50;;;;;;;22.90;58.73;99316.41;1763810;79;21944;-54
2021/06/14 09:34:11;;;;;;;0.65;0.50;;;;;;;22.91;57.98;99318.14;1760549;79;20954;-52
2021/06/14 09:36:37;;;;;;;1.25;0.42;;;;;;;22.94;57.18;99320.56;1762059;79;20947;-53
2021/06/14 09:39:17;;;;;;;0.50;0.50;;;;;;;22.99;57.13;99319.55;1696185;82;21046;-53
2021/06/14 09:41:48;;;;;;;0.60;0.50;;;;;;;23.01;57.07;99324.38;1719417;81;21654;-53
2021/06/14 09:44:16;;;;;;;0.70;0.70;;;;;;;23.05;57.46;99323.55;1764731;79;21132;-56
2021/06/14 09:46:43;;;;;;;1.82;0.40;;;;;;;23.08;57.24;99324.06;1753631;79;21124;-52
2021/06/14 09:49:15;;;;;;;1.98;0.40;;;;;;;23.13;58.03;99325.83;1755114;79;21543;-50
2021/06/14 09:51:51;;;;;;;0.72;0.45;;;;;;;23.25;57.32;99313.51;1691669;82;21125;-55
2021/06/14 09:54:30;;;;;;;0.82;0.50;;;;;;;23.34;57.34;99320.76;1720802;80;21777;-54
2021/06/14 09:56:59;;;;;;;1.75;0.50;;;;;;;23.40;57.27;99326.95;1760229;79;21258;-53
2021/06/14 09:59:27;;;;;;;2.33;0.50;;;;;;;23.42;56.92;99318.55;1695238;82;21076;-52
2021/06/14 10:02:05;;;;;;;0.50;0.50;;;;;;;23.43;56.12;99323.02;1759755;79;21128;-54
2021/06/14 10:04:32;;;;;;;1.40;0.50;;;;;;;23.43;56.26;99322.16;1755014;79;20987;-56
2021/06/14 10:07:10;;;;;;;0.53;0.40;;;;;;;23.42;55.88;99332.28;1764534;79;20883;-52
2021/06/14 10:09:41;;;;;;;0.50;0.42;;;;;;;23.44;56.11;99337.62;1759282;79;21955;-52
2021/06/14 10:12:21;;;;;;;0.50;0.40;;;;;;;23.49;56.13;99329.25;1755918;79;21062;-53
2021/06/14 10:14:57;;;;;;;0.82;0.50;;;;;;;23.53;55.74;99330.66;1694708;82;21097;-55
2021/06/14 10:17:37;;;;;;;0.68;0.50;;;;;;;23.57;55.50;99335.28;1758894;79;21572;-55
2021/06/14 10:20:17;;;;;;;0.50;0.50;;;;;;;23.57;55.92;99333.91;1761053;79;21982;-53
2021/06/14 10:22:44;;;;;;;4.83;0.53;;;;;;;23.62;55.83;99329.66;1754606;79;21082;-52
2021/06/14 10:25:12;;;;;;;1.82;0.50;;;;;;;23.68;56.15;99328.11;1752664;79;21155;-53
2021/06/14 10:27:38;;;;;;;0.50;0.42;;;;;;;23.73;56.04;99325.20;1756963;79;20923;-57
2021/06/14 10:30:08;;;;;;;0.70;0.40;;;;;;;23.77;54.97;99328.48;1763016;79;20891;-53
2021/06/14 10:32:36;;;;;;;1.90;0.50;;;;;;;23.73;55.02;99329.31;1706887;82;21272;-51
2021/06/14 10:35:03;;;;;;;1.00;0.50;;;;;;;23.70;54.81;99328.30;1761912;79;21066;-52
2021/06/14 10:37:30;;;;;;;0.57;0.50;;;;;;;23.72;55.42;99333.13;1757542;79;21082;-55
2021/06/14 10:39:57;;;;;;;1.67;0.42;;;;;;;23.71;55.83;99336.03;1759866;79;21057;-53
2021/06/14 10:42:23;;;;;;;0.75;0.50;;;;;;;23.74;55.54;99338.42;1757232;79;21120;-53
2021/06/14 10:44:49;;;;;;;0.40;0.40;;;;;;;23.78;55.39;99334.84;1756308;79;21525;-56
2021/06/14 10:47:15;;;;;;;1.25;0.40;;;;;;;23.83;54.43;99330.55;1690507;82;21086;-53
2021/06/14 10:49:42;;;;;;;2.08;0.50;;;;;;;23.84;54.02;99329.52;1758515;79;21077;-57
2021/06/14 10:52:08;;;;;;;0.62;0.40;;;;;;;23.84;55.40;99322.66;1756009;79;21522;-55
2021/06/14 10:54:41;;;;;;;1.12;0.50;;;;;;;23.83;54.65;99322.30;1752572;79;22626;-53
2021/06/14 10:57:11;;;;;;;0.60;0.40;;;;;;;23.84;55.21;99315.78;1691560;82;21134;-57
2021/06/14 10:59:39;;;;;;;2.00;0.50;;;;;;;23.82;55.52;99322.50;1692032;82;21078;-57
2021/06/14 11:02:09;;;;;;;0.70;0.40;;;;;;;23.81;54.59;99321.64;1691809;82;21073;-54
2021/06/14 11:04:36;;;;;;;0.50;0.40;;;;;;;23.76;54.41;99325.39;1694545;82;22899;-52
2021/06/14 11:07:02;;;;;;;0.57;0.50;;;;;;;23.74;54.88;99329.67;1691959;82;21042;-52
2021/06/14 11:09:42;;;;;;;0.45;0.40;;;;;;;23.80;55.17;99330.05;1697080;82;21180;-53
2021/06/14 11:12:26;;;;;;;0.70;0.50;;;;;;;23.85;54.89;99328.50;1688635;82;21718;-56
2021/06/14 11:14:52;;;;;;;1.87;0.37;;;;;;;23.95;54.41;99322.86;1696018;82;21090;-54
2021/06/14 11:17:29;;;;;;;0.90;0.37;;;;;;;24.02;53.92;99312.38;1700217;82;21153;-52
2021/06/14 11:20:04;;;;;;;0.40;0.40;;;;;;;24.11;53.23;99312.73;1695281;82;21516;-56
2021/06/14 11:22:43;;;;;;;0.40;0.40;;;;;;;24.13;53.18;99320.30;1691670;82;21130;-53
2021/06/14 11:25:30;;;;;;;0.45;0.40;;;;;;;24.13;53.37;99325.80;1693124;82;21529;-56
2021/06/14 11:27:59;;;;;;;0.82;0.42;;;;;;;24.13;53.25;99328.55;1754703;79;21034;-53
2021/06/14 11:30:30;;;;;;;2.25;0.50;;;;;;;24.10;53.66;99332.14;1691790;82;21618;-53
2021/06/14 11:32:57;;;;;;;0.60;0.50;;;;;;;24.12;53.08;99320.47;1754607;79;21021;-56
2021/06/14 11:35:24;;;;;;;0.40;0.40;;;;;;;24.11;53.23;99318.75;1763503;79;21035;-53
2021/06/14 11:37:50;;;;;;;2.05;0.35;;;;;;;24.17;52.79;99316.67;1759789;79;21065;-55
2021/06/14 11:40:20;;;;;;;0.30;0.30;;;;;;;24.28;51.49;99313.63;1757401;79;21129;-53
2021/06/14 11:42:49;;;;;;;1.57;0.40;;;;;;;24.39;51.72;99316.05;1737648;79;21086;-55
2021/06/14 11:45:29;;;;;;;0.53;0.40;;;;;;;24.44;51.44;99316.38;1759843;79;21037;-54
2021/06/14 11:47:59;;;;;;;1.27;0.40;;;;;;;24.48;51.60;99314.16;1758613;79;22229;-56
2021/06/14 11:50:28;;;;;;;1.95;0.50;;;;;;;24.51;52.16;99313.27;1758973;79;21102;-54
2021/06/14 11:53:00;;;;;;;0.47;0.40;;;;;;;24.57;52.24;99312.25;1770950;79;21357;-58